createdAt,value
2017-12-22T00:02:15.543Z,2.80
2017-12-22T00:04:43.404Z,2.70
2017-12-22T00:07:11.405Z,2.70
2017-12-22T00:09:39.610Z,2.70
2017-12-22T00:12:08.392Z,2.70
2017-12-22T00:14:36.617Z,2.70
2017-12-22T00:17:04.491Z,2.70
2017-12-22T00:19:32.452Z,2.70
2017-12-22T00:22:00.315Z,2.80
2017-12-22T00:24:28.388Z,2.70
2017-12-22T00:26:56.148Z,2.70
2017-12-22T00:29:24.028Z,2.70
2017-12-22T00:31:51.980Z,2.70
2017-12-22T00:34:19.880Z,2.70
2017-12-22T00:36:47.793Z,2.80
2017-12-22T00:39:15.746Z,2.70
2017-12-22T00:41:44.304Z,2.60
2017-12-22T00:44:12.246Z,2.60
2017-12-22T00:46:40.247Z,2.60
2017-12-22T00:49:09.422Z,2.50
2017-12-22T00:51:37.908Z,2.40
2017-12-22T00:54:05.895Z,2.30
2017-12-22T00:56:33.759Z,2.20
2017-12-22T00:59:01.712Z,2.10
2017-12-22T01:01:29.539Z,2.10
2017-12-22T01:03:57.607Z,2.10
2017-12-22T01:06:26.182Z,2.00
2017-12-22T01:08:55.317Z,2.00
2017-12-22T01:11:23.126Z,2.00
2017-12-22T01:13:51.887Z,2.10
2017-12-22T01:16:25.208Z,2.00
2017-12-22T01:19:00.297Z,2.20
2017-12-22T01:21:28.325Z,2.10
2017-12-22T01:23:56.199Z,2.20
2017-12-22T01:26:24.057Z,2.30
2017-12-22T01:28:52.036Z,2.40
2017-12-22T01:31:20.118Z,2.40
2017-12-22T01:33:52.472Z,2.40
2017-12-22T01:36:20.362Z,2.30
2017-12-22T01:38:48.268Z,2.40
2017-12-22T01:41:16.934Z,2.40
2017-12-22T01:43:44.962Z,2.30
2017-12-22T01:46:12.912Z,2.30
2017-12-22T01:48:41.522Z,2.30
2017-12-22T01:51:09.355Z,2.30
2017-12-22T01:53:38.253Z,2.30
2017-12-22T01:56:07.165Z,2.30
2017-12-22T01:58:35.131Z,2.30
2017-12-22T02:01:04.069Z,2.30
2017-12-22T02:03:31.913Z,2.30
2017-12-22T02:06:03.774Z,2.30
2017-12-22T02:08:32.460Z,2.30
2017-12-22T02:11:00.451Z,2.30
2017-12-22T02:13:28.243Z,2.30
2017-12-22T02:15:56.234Z,2.30
2017-12-22T02:18:24.250Z,2.30
2017-12-22T02:20:52.048Z,2.30
2017-12-22T02:23:19.977Z,2.20
2017-12-22T02:25:47.914Z,2.20
2017-12-22T02:28:15.768Z,2.20
2017-12-22T02:30:44.342Z,2.20
2017-12-22T02:33:12.930Z,2.10
2017-12-22T02:35:42.660Z,2.10
2017-12-22T02:38:11.293Z,2.10
2017-12-22T02:40:43.306Z,2.10
2017-12-22T02:43:11.330Z,2.20
2017-12-22T02:45:39.348Z,2.10
2017-12-22T02:48:07.265Z,2.20
2017-12-22T02:50:35.143Z,2.20
2017-12-22T02:53:04.000Z,2.10
2017-12-22T02:55:31.776Z,2.10
2017-12-22T02:58:01.998Z,2.20
2017-12-22T03:00:30.599Z,2.10
2017-12-22T03:02:58.479Z,2.10
2017-12-22T03:05:27.248Z,2.10
2017-12-22T03:07:56.896Z,2.10
2017-12-22T03:10:24.979Z,2.10
2017-12-22T03:12:52.940Z,2.20
2017-12-22T03:15:20.883Z,2.20
2017-12-22T03:17:50.660Z,2.10
2017-12-22T03:20:18.899Z,2.10
2017-12-22T03:22:46.781Z,2.10
2017-12-22T03:25:14.697Z,2.10
2017-12-22T03:27:42.811Z,2.10
2017-12-22T03:30:11.653Z,2.10
2017-12-22T03:32:39.429Z,2.00
2017-12-22T03:35:07.325Z,2.00
2017-12-22T03:37:35.163Z,2.00
2017-12-22T03:40:03.142Z,1.90
2017-12-22T03:42:31.297Z,1.80
2017-12-22T03:44:59.961Z,1.70
2017-12-22T03:47:27.873Z,1.70
2017-12-22T03:49:57.161Z,1.70
2017-12-22T03:52:25.807Z,1.70
2017-12-22T03:54:53.690Z,1.70
2017-12-22T03:57:21.507Z,1.70
2017-12-22T03:59:49.387Z,1.70
2017-12-22T04:02:21.272Z,1.70
2017-12-22T04:04:49.788Z,1.70
2017-12-22T04:07:18.491Z,1.70
2017-12-22T04:09:47.361Z,1.70
2017-12-22T04:12:15.931Z,1.80
2017-12-22T04:14:43.779Z,1.80
2017-12-22T04:17:12.224Z,1.90
2017-12-22T04:19:40.027Z,1.90
2017-12-22T04:22:07.956Z,1.90
2017-12-22T04:24:35.814Z,1.90
2017-12-22T04:27:03.829Z,2.00
2017-12-22T04:29:31.854Z,2.00
2017-12-22T04:32:00.707Z,2.00
2017-12-22T04:34:29.411Z,2.00
2017-12-22T04:36:58.660Z,1.90
2017-12-22T04:39:26.534Z,1.90
2017-12-22T04:42:00.683Z,1.90
2017-12-22T04:44:28.759Z,2.00
2017-12-22T04:46:56.741Z,2.00
2017-12-22T04:49:25.676Z,2.00
2017-12-22T04:51:53.719Z,2.00
2017-12-22T04:54:21.552Z,2.10
2017-12-22T04:56:50.398Z,2.10
2017-12-22T04:59:19.708Z,2.00
2017-12-22T05:01:48.589Z,2.00
2017-12-22T05:04:16.785Z,2.10
2017-12-22T05:06:44.681Z,2.10
2017-12-22T05:09:13.352Z,2.10
2017-12-22T05:11:41.941Z,2.10
2017-12-22T05:14:15.149Z,2.10
2017-12-22T05:16:43.912Z,2.10
2017-12-22T05:19:11.791Z,2.10
2017-12-22T05:21:39.600Z,2.10
2017-12-22T05:24:07.426Z,2.10
2017-12-22T05:26:35.423Z,2.10
2017-12-22T05:29:03.294Z,2.10
2017-12-22T05:31:32.448Z,2.20
2017-12-22T05:34:01.144Z,2.10
2017-12-22T05:36:30.564Z,2.20
2017-12-22T05:38:58.666Z,2.20
2017-12-22T05:41:26.440Z,2.20
2017-12-22T05:43:54.341Z,2.20
2017-12-22T05:46:22.189Z,2.20
2017-12-22T05:48:50.068Z,2.30
2017-12-22T05:51:18.774Z,2.30
2017-12-22T05:53:46.784Z,2.30
2017-12-22T05:56:14.757Z,2.20
2017-12-22T05:58:42.757Z,2.20
2017-12-22T06:01:14.379Z,2.20
2017-12-22T06:03:42.990Z,2.20
2017-12-22T06:06:11.966Z,2.20
2017-12-22T06:08:39.897Z,2.20
2017-12-22T06:11:07.927Z,2.20
2017-12-22T06:13:37.026Z,2.30
2017-12-22T06:16:06.592Z,2.20
2017-12-22T06:18:35.356Z,2.30
2017-12-22T06:21:03.366Z,2.30
2017-12-22T06:23:31.324Z,2.40
2017-12-22T06:26:00.194Z,2.40
2017-12-22T06:28:28.109Z,2.40
2017-12-22T06:30:56.667Z,2.50
2017-12-22T06:33:24.459Z,2.50
2017-12-22T06:35:53.492Z,2.60
2017-12-22T06:38:21.336Z,2.60
2017-12-22T06:40:49.982Z,2.70
2017-12-22T06:43:17.876Z,2.60
2017-12-22T06:45:46.474Z,2.70
2017-12-22T06:48:15.060Z,2.60
2017-12-22T06:50:43.663Z,2.60
2017-12-22T06:53:11.477Z,2.60
2017-12-22T06:55:39.312Z,2.60
2017-12-22T06:58:07.225Z,2.60
2017-12-22T07:00:35.802Z,2.60
2017-12-22T07:03:03.603Z,2.60
2017-12-22T07:05:31.386Z,2.70
2017-12-22T07:07:59.207Z,2.70
2017-12-22T07:10:27.786Z,2.70
2017-12-22T07:12:56.351Z,2.70
2017-12-22T07:15:24.172Z,2.70
2017-12-22T07:17:51.936Z,2.80
2017-12-22T07:20:19.710Z,2.70
2017-12-22T07:22:47.581Z,2.80
2017-12-22T07:25:15.428Z,2.80
2017-12-22T07:27:43.185Z,2.80
2017-12-22T07:30:11.047Z,2.90
2017-12-22T07:32:38.855Z,2.90
2017-12-22T07:35:07.346Z,2.90
2017-12-22T07:37:35.147Z,2.90
2017-12-22T07:40:03.956Z,3.00
2017-12-22T07:42:31.727Z,3.00
2017-12-22T07:44:59.524Z,3.00
2017-12-22T07:47:27.886Z,3.00
2017-12-22T07:49:55.642Z,3.10
2017-12-22T07:52:23.410Z,3.20
2017-12-22T07:54:56.351Z,3.20
2017-12-22T07:57:24.911Z,3.20
2017-12-22T07:59:52.733Z,3.20
2017-12-22T08:02:20.491Z,3.30
2017-12-22T08:04:48.289Z,3.30
2017-12-22T08:07:16.128Z,3.30
2017-12-22T08:09:43.933Z,3.30
2017-12-22T08:12:12.400Z,3.40
2017-12-22T08:14:40.163Z,3.50
2017-12-22T08:17:07.972Z,3.60
2017-12-22T08:19:36.595Z,3.60
2017-12-22T08:22:04.392Z,3.60
2017-12-22T08:24:32.183Z,3.60
2017-12-22T08:27:00.851Z,3.70
2017-12-22T08:29:28.633Z,3.60
2017-12-22T08:31:57.244Z,3.60
2017-12-22T08:34:25.018Z,3.50
2017-12-22T08:36:52.776Z,3.50
2017-12-22T08:39:20.549Z,3.50
2017-12-22T08:41:48.332Z,3.50
2017-12-22T08:44:16.096Z,3.60
2017-12-22T08:46:43.866Z,3.70
2017-12-22T08:49:12.211Z,3.70
2017-12-22T08:51:40.004Z,3.70
2017-12-22T08:54:07.776Z,3.60
2017-12-22T08:56:35.885Z,3.60
2017-12-22T08:59:03.648Z,3.70
2017-12-22T09:01:32.841Z,3.60
2017-12-22T09:04:02.424Z,3.70
2017-12-22T09:06:30.258Z,3.70
2017-12-22T09:08:58.006Z,3.80
2017-12-22T09:14:00.550Z,3.90
2017-12-22T09:16:28.370Z,3.90
2017-12-22T09:18:56.113Z,4.00
2017-12-22T09:21:23.983Z,4.00
2017-12-22T09:23:51.747Z,4.10
2017-12-22T09:26:19.495Z,4.20
2017-12-22T09:28:48.532Z,4.30
2017-12-22T09:31:16.310Z,4.20
2017-12-22T09:33:44.197Z,4.30
2017-12-22T09:36:11.958Z,4.40
2017-12-22T09:38:39.795Z,4.50
2017-12-22T09:41:07.726Z,4.50
2017-12-22T09:43:35.527Z,4.40
2017-12-22T09:46:03.307Z,4.20
2017-12-22T09:48:31.130Z,4.20
2017-12-22T09:50:58.935Z,4.20
2017-12-22T09:53:26.712Z,4.10
2017-12-22T09:55:54.518Z,4.00
2017-12-22T09:58:23.106Z,4.10
2017-12-22T10:00:50.916Z,4.10
2017-12-22T10:03:18.702Z,4.20
2017-12-22T10:05:47.302Z,4.40
2017-12-22T10:08:15.128Z,4.40
2017-12-22T10:10:42.920Z,4.60
2017-12-22T10:13:11.481Z,4.70
2017-12-22T10:15:39.301Z,4.70
2017-12-22T10:18:07.110Z,4.80
2017-12-22T10:20:35.217Z,4.70
2017-12-22T10:23:03.867Z,4.70
2017-12-22T10:25:31.628Z,4.70
2017-12-22T10:28:00.196Z,4.60
2017-12-22T10:30:27.958Z,4.60
2017-12-22T10:32:55.705Z,4.40
2017-12-22T10:35:24.387Z,4.30
2017-12-22T10:37:52.189Z,4.40
2017-12-22T10:40:19.967Z,4.40
2017-12-22T10:42:48.585Z,4.50
2017-12-22T10:45:16.463Z,4.50
2017-12-22T10:47:44.287Z,4.50
2017-12-22T10:50:12.858Z,4.60
2017-12-22T10:52:40.608Z,4.60
2017-12-22T10:55:08.370Z,4.60
2017-12-22T10:57:36.141Z,4.60
2017-12-22T11:00:04.001Z,4.70
2017-12-22T11:02:31.776Z,4.70
2017-12-22T11:05:00.469Z,4.70
2017-12-22T11:07:28.235Z,4.70
2017-12-22T11:09:55.981Z,4.80
2017-12-22T11:12:23.766Z,4.80
2017-12-22T11:14:51.527Z,4.90
2017-12-22T11:17:19.615Z,4.80
2017-12-22T11:19:48.185Z,4.80
2017-12-22T11:22:17.199Z,4.70
2017-12-22T11:24:44.986Z,4.70
2017-12-22T11:27:12.745Z,4.80
2017-12-22T11:29:40.516Z,4.80
2017-12-22T11:32:08.277Z,4.80
2017-12-22T11:34:36.110Z,4.70
2017-12-22T11:37:04.632Z,4.70
2017-12-22T11:39:32.479Z,4.70
2017-12-22T11:42:00.233Z,4.70
2017-12-22T11:44:28.759Z,4.70
2017-12-22T11:46:56.565Z,4.60
2017-12-22T11:49:25.934Z,4.70
2017-12-22T11:51:53.733Z,4.70
2017-12-22T11:54:22.347Z,4.80
2017-12-22T11:56:50.174Z,4.80
2017-12-22T11:59:18.756Z,4.60
2017-12-22T12:01:46.588Z,4.60
2017-12-22T12:04:14.414Z,4.70
2017-12-22T12:06:42.802Z,4.70
2017-12-22T12:09:10.868Z,4.70
2017-12-22T12:11:38.712Z,4.70
2017-12-22T12:14:09.173Z,4.60
2017-12-22T12:16:42.762Z,4.60
2017-12-22T12:19:15.606Z,4.60
2017-12-22T12:21:46.044Z,4.70
2017-12-22T12:24:16.071Z,4.90
2017-12-22T12:26:46.759Z,4.80
2017-12-22T12:29:31.552Z,4.90
2017-12-22T12:32:09.221Z,4.90
2017-12-22T12:34:37.290Z,4.90
2017-12-22T12:37:09.874Z,4.90
2017-12-22T12:39:38.822Z,4.90
2017-12-22T12:42:11.235Z,4.80
2017-12-22T12:44:39.206Z,4.80
2017-12-22T12:47:07.564Z,4.90
2017-12-22T12:49:35.407Z,4.90
2017-12-22T12:52:03.286Z,4.90
2017-12-22T12:54:32.327Z,5.00
2017-12-22T12:57:00.226Z,5.00
2017-12-22T12:59:28.884Z,5.20
2017-12-22T13:01:56.733Z,5.20
2017-12-22T13:04:24.716Z,5.20
2017-12-22T13:06:52.641Z,5.10
2017-12-22T13:09:20.522Z,5.10
2017-12-22T13:11:49.275Z,5.00
2017-12-22T13:14:17.152Z,5.00
2017-12-22T13:16:45.384Z,4.90
2017-12-22T13:19:13.545Z,4.90
2017-12-22T13:21:41.420Z,4.90
2017-12-22T13:24:09.275Z,4.90
2017-12-22T13:26:37.345Z,4.90
2017-12-22T13:29:05.135Z,4.80
2017-12-22T13:31:34.429Z,4.80
2017-12-22T13:34:02.713Z,4.80
2017-12-22T13:36:31.587Z,4.80
2017-12-22T13:38:59.410Z,4.70
2017-12-22T13:41:27.291Z,4.80
2017-12-22T13:43:55.686Z,4.80
2017-12-22T13:46:23.499Z,4.80
2017-12-22T13:48:51.407Z,4.80
2017-12-22T13:51:19.379Z,4.80
2017-12-22T13:53:47.398Z,4.80
2017-12-22T13:56:15.298Z,4.80
2017-12-22T13:58:43.151Z,4.80
2017-12-22T14:01:10.936Z,4.80
2017-12-22T14:03:38.736Z,4.80
2017-12-22T14:06:06.966Z,4.80
2017-12-22T14:08:34.780Z,4.80
2017-12-22T14:11:03.365Z,4.80
2017-12-22T14:13:31.152Z,4.80
2017-12-22T14:16:00.084Z,4.80
2017-12-22T14:18:27.999Z,4.80
2017-12-22T14:20:56.596Z,4.80
2017-12-22T14:23:24.448Z,4.80
2017-12-22T14:25:53.294Z,4.80
2017-12-22T14:28:21.159Z,4.80
2017-12-22T14:30:49.143Z,4.80
2017-12-22T14:33:17.064Z,4.80
2017-12-22T14:35:44.822Z,4.80
2017-12-22T14:38:12.850Z,4.80
2017-12-22T14:40:40.701Z,4.80
2017-12-22T14:43:08.530Z,4.90
2017-12-22T14:45:36.710Z,4.80
2017-12-22T14:48:04.679Z,4.80
2017-12-22T14:50:32.525Z,4.90
2017-12-22T14:53:01.170Z,4.90
2017-12-22T14:55:28.940Z,4.90
2017-12-22T14:57:56.793Z,4.90
2017-12-22T15:00:24.698Z,4.90
2017-12-22T15:02:53.354Z,4.90
2017-12-22T15:05:21.263Z,4.90
2017-12-22T15:07:49.296Z,4.90
2017-12-22T15:10:17.083Z,4.90
2017-12-22T15:12:45.851Z,4.90
2017-12-22T15:15:13.694Z,4.90
2017-12-22T15:17:41.557Z,4.90
2017-12-22T15:20:09.507Z,4.90
2017-12-22T15:22:38.091Z,4.90
2017-12-22T15:25:05.932Z,4.90
2017-12-22T15:27:33.725Z,4.90
2017-12-22T15:30:01.525Z,4.90
2017-12-22T15:32:29.690Z,4.90
2017-12-22T15:34:57.491Z,4.90
2017-12-22T15:37:26.109Z,4.90
2017-12-22T15:39:53.894Z,4.90
2017-12-22T15:42:21.681Z,4.80
2017-12-22T15:44:49.590Z,4.80
2017-12-22T15:47:17.505Z,4.80
2017-12-22T15:49:45.437Z,4.80
2017-12-22T15:52:13.321Z,4.80
2017-12-22T15:54:41.400Z,4.80
2017-12-22T15:57:09.200Z,4.80
2017-12-22T15:59:37.762Z,4.80
2017-12-22T16:02:05.566Z,4.80
2017-12-22T16:04:34.281Z,4.80
2017-12-22T16:07:02.376Z,4.80
2017-12-22T16:09:30.249Z,4.80
2017-12-22T16:11:58.089Z,4.80
2017-12-22T16:14:25.912Z,4.80
2017-12-22T16:16:54.687Z,4.70
2017-12-22T16:19:23.343Z,4.70
2017-12-22T16:21:51.158Z,4.70
2017-12-22T16:24:19.076Z,4.70
2017-12-22T16:26:46.884Z,4.70
2017-12-22T16:31:50.093Z,4.70
2017-12-22T16:34:18.825Z,4.70
2017-12-22T16:36:46.650Z,4.60
2017-12-22T16:39:15.228Z,4.70
2017-12-22T16:41:43.088Z,4.70
2017-12-22T16:44:11.768Z,4.70
2017-12-22T16:46:40.995Z,4.70
2017-12-22T16:49:08.965Z,4.70
2017-12-22T16:51:36.774Z,4.70
2017-12-22T16:54:04.595Z,4.70
2017-12-22T16:56:32.435Z,4.70
2017-12-22T16:59:01.071Z,4.70
2017-12-22T17:01:28.871Z,4.70
2017-12-22T17:03:56.697Z,4.70
2017-12-22T17:06:24.672Z,4.70
2017-12-22T17:08:52.982Z,4.70
2017-12-22T17:11:20.766Z,4.70
2017-12-22T17:13:49.322Z,4.60
2017-12-22T17:16:17.110Z,4.60
2017-12-22T17:18:45.716Z,4.50
2017-12-22T17:21:14.218Z,4.50
2017-12-22T17:23:42.063Z,4.50
2017-12-22T17:26:09.980Z,4.50
2017-12-22T17:28:37.760Z,4.50
2017-12-22T17:31:05.531Z,4.40
2017-12-22T17:33:34.085Z,4.40
2017-12-22T17:36:01.892Z,4.40
2017-12-22T17:38:30.573Z,4.30
2017-12-22T17:40:59.652Z,4.30
2017-12-22T17:43:27.519Z,4.20
2017-12-22T17:45:55.349Z,4.30
2017-12-22T17:48:23.194Z,4.30
2017-12-22T17:50:51.002Z,4.30
2017-12-22T17:53:18.792Z,4.30
2017-12-22T17:55:47.372Z,4.40
2017-12-22T17:58:15.939Z,4.30
2017-12-22T18:00:43.814Z,4.40
2017-12-22T18:03:12.369Z,4.30
2017-12-22T18:05:40.382Z,4.30
2017-12-22T18:08:09.802Z,4.30
2017-12-22T18:10:37.690Z,4.30
2017-12-22T18:13:05.544Z,4.30
2017-12-22T18:15:33.447Z,4.30
2017-12-22T18:18:01.372Z,4.30
2017-12-22T18:20:29.372Z,4.30
2017-12-22T18:22:57.279Z,4.30
2017-12-22T18:25:25.896Z,4.30
2017-12-22T18:27:53.805Z,4.30
2017-12-22T18:30:21.653Z,4.40
2017-12-22T18:32:49.431Z,4.30
2017-12-22T18:35:17.510Z,4.40
2017-12-22T18:37:45.316Z,4.40
2017-12-22T18:40:13.131Z,4.40
2017-12-22T18:42:41.831Z,4.50
2017-12-22T18:45:09.692Z,4.50
2017-12-22T18:47:37.487Z,4.50
2017-12-22T18:50:06.048Z,4.50
2017-12-22T18:52:33.831Z,4.50
2017-12-22T18:55:06.278Z,4.50
2017-12-22T18:57:34.139Z,4.50
2017-12-22T19:00:02.758Z,4.50
2017-12-22T19:02:31.340Z,4.60
2017-12-22T19:04:59.894Z,4.50
2017-12-22T19:07:27.676Z,4.50
2017-12-22T19:09:55.584Z,4.60
2017-12-22T19:12:24.480Z,4.60
2017-12-22T19:14:52.223Z,4.60
2017-12-22T19:17:20.022Z,4.60
2017-12-22T19:19:48.024Z,4.50
2017-12-22T19:22:15.792Z,4.50
2017-12-22T19:24:43.589Z,4.50
2017-12-22T19:27:11.389Z,4.50
2017-12-22T19:29:39.200Z,4.60
2017-12-22T19:32:07.785Z,4.60
2017-12-22T19:34:36.358Z,4.60
2017-12-22T19:37:04.904Z,4.60
2017-12-22T19:39:32.670Z,4.60
2017-12-22T19:42:00.484Z,4.60
2017-12-22T19:44:29.854Z,4.60
2017-12-22T19:46:58.536Z,4.60
2017-12-22T19:49:26.418Z,4.60
2017-12-22T19:51:54.524Z,4.60
2017-12-22T19:54:22.352Z,4.60
2017-12-22T19:56:50.170Z,4.60
2017-12-22T19:59:18.003Z,4.60
2017-12-22T20:01:46.558Z,4.50
2017-12-22T20:04:14.350Z,4.50
2017-12-22T20:06:42.951Z,4.50
2017-12-22T20:09:10.854Z,4.50
2017-12-22T20:11:38.670Z,4.50
2017-12-22T20:14:07.208Z,4.40
2017-12-22T20:16:35.332Z,4.40
2017-12-22T20:19:03.179Z,4.40
2017-12-22T20:21:32.008Z,4.50
2017-12-22T20:23:59.861Z,4.50
2017-12-22T20:26:27.697Z,4.50
2017-12-22T20:28:56.290Z,4.50
2017-12-22T20:31:25.186Z,4.50
2017-12-22T20:33:53.006Z,4.50
2017-12-22T20:36:20.956Z,4.50
2017-12-22T20:38:48.885Z,4.50
2017-12-22T20:41:17.396Z,4.50
2017-12-22T20:43:45.179Z,4.50
2017-12-22T20:46:12.973Z,4.50
2017-12-22T20:48:41.511Z,4.50
2017-12-22T20:51:09.357Z,4.50
2017-12-22T20:53:37.133Z,4.50
2017-12-22T20:56:05.869Z,4.50
2017-12-22T20:58:33.643Z,4.50
2017-12-22T21:01:01.469Z,4.50
2017-12-22T21:03:29.263Z,4.50
2017-12-22T21:05:57.033Z,4.50
2017-12-22T21:08:24.890Z,4.50
2017-12-22T21:10:52.798Z,4.50
2017-12-22T21:13:20.589Z,4.50
2017-12-22T21:15:48.388Z,4.50
2017-12-22T21:18:16.192Z,4.40
2017-12-22T21:20:43.966Z,4.40
2017-12-22T21:23:11.733Z,4.50
2017-12-22T21:25:39.537Z,4.50
2017-12-22T21:28:07.359Z,4.50
2017-12-22T21:30:35.121Z,4.50
2017-12-22T21:33:02.910Z,4.50
2017-12-22T21:35:30.656Z,4.50
2017-12-22T21:37:58.495Z,4.50
2017-12-22T21:40:27.038Z,4.50
2017-12-22T21:42:54.802Z,4.50
2017-12-22T21:45:23.133Z,4.50
2017-12-22T21:47:50.913Z,4.60
2017-12-22T21:50:18.764Z,4.60
2017-12-22T21:52:46.554Z,4.60
2017-12-22T21:55:14.307Z,4.60
2017-12-22T21:57:42.135Z,4.60
2017-12-22T22:00:10.775Z,4.70
2017-12-22T22:02:38.579Z,4.70
2017-12-22T22:05:06.379Z,4.70
2017-12-22T22:07:34.152Z,4.70
2017-12-22T22:10:02.128Z,4.70
2017-12-22T22:12:29.897Z,4.70
2017-12-22T22:14:57.931Z,4.70
2017-12-22T22:17:25.701Z,4.70
2017-12-22T22:19:53.470Z,4.70
2017-12-22T22:22:22.078Z,4.70
2017-12-22T22:24:49.917Z,4.60
2017-12-22T22:27:17.687Z,4.70
2017-12-22T22:29:45.451Z,4.70
2017-12-22T22:32:13.215Z,4.60
2017-12-22T22:34:40.958Z,4.60
2017-12-22T22:37:10.067Z,4.60
2017-12-22T22:39:37.872Z,4.60
2017-12-22T22:42:05.624Z,4.60
2017-12-22T22:44:33.375Z,4.60
2017-12-22T22:47:01.140Z,4.60
2017-12-22T22:49:28.933Z,4.60
2017-12-22T22:51:56.760Z,4.50
2017-12-22T22:54:24.537Z,4.50
2017-12-22T22:56:52.338Z,4.50
2017-12-22T22:59:20.058Z,4.50
2017-12-22T23:01:47.816Z,4.50
2017-12-22T23:04:15.562Z,4.50
2017-12-22T23:06:44.070Z,4.40
2017-12-22T23:09:11.844Z,4.40
2017-12-22T23:11:39.611Z,4.40
2017-12-22T23:14:07.394Z,4.40
2017-12-22T23:16:35.156Z,4.40
2017-12-22T23:19:02.944Z,4.40
2017-12-22T23:21:30.763Z,4.40
2017-12-22T23:23:58.555Z,4.40
2017-12-22T23:26:26.375Z,4.40
2017-12-22T23:28:54.141Z,4.50
2017-12-22T23:31:21.907Z,4.50
2017-12-22T23:33:49.700Z,4.50
2017-12-22T23:36:17.484Z,4.50
2017-12-22T23:38:45.406Z,4.40
2017-12-22T23:41:13.167Z,4.40
2017-12-22T23:43:40.917Z,4.50
2017-12-22T23:46:09.492Z,4.50
2017-12-22T23:48:38.007Z,4.50
2017-12-22T23:51:06.728Z,4.50
2017-12-22T23:53:34.537Z,4.50
2017-12-22T23:56:02.300Z,4.50
2017-12-22T23:58:30.580Z,4.50
